sensor_id;sensor_type;location;lat;lon;timestamp;pressure;altitude;pressure_sealevel;temperature
51149;BMP280;37210;50.058;8.688;2023-03-01T00:01:16;101449.81;;;2.10
51149;BMP280;37210;50.058;8.688;2023-03-01T00:03:47;101455.81;;;1.63
51149;BMP280;37210;50.058;8.688;2023-03-01T00:06:15;101445.66;;;1.82
51149;BMP280;37210;50.058;8.688;2023-03-01T00:08:44;101437.66;;;1.92
51149;BMP280;37210;50.058;8.688;2023-03-01T00:11:14;101434.75;;;2.02
51149;BMP280;37210;50.058;8.688;2023-03-01T00:13:46;101392.06;;;1.92
51149;BMP280;37210;50.058;8.688;2023-03-01T00:16:18;101438.66;;;1.32
51149;BMP280;37210;50.058;8.688;2023-03-01T00:18:47;101442.38;;;2.00
51149;BMP280;37210;50.058;8.688;2023-03-01T00:21:15;101397.81;;;1.71
51149;BMP280;37210;50.058;8.688;2023-03-01T00:23:43;101440.84;;;2.20
51149;BMP280;37210;50.058;8.688;2023-03-01T00:26:13;101423.06;;;2.08
51149;BMP280;37210;50.058;8.688;2023-03-01T00:28:42;101250.22;;;1.12
51149;BMP280;37210;50.058;8.688;2023-03-01T00:31:13;101433.69;;;2.14
51149;BMP280;37210;50.058;8.688;2023-03-01T00:33:42;101353.94;;;1.71
51149;BMP280;37210;50.058;8.688;2023-03-01T00:36:11;101345.00;;;1.64
51149;BMP280;37210;50.058;8.688;2023-03-01T00:38:42;101411.34;;;1.99
51149;BMP280;37210;50.058;8.688;2023-03-01T00:41:14;101385.47;;;1.97
51149;BMP280;37210;50.058;8.688;2023-03-01T00:43:43;101412.63;;;2.23
51149;BMP280;37210;50.058;8.688;2023-03-01T00:46:15;101421.81;;;2.18
51149;BMP280;37210;50.058;8.688;2023-03-01T00:48:44;101415.59;;;1.98
51149;BMP280;37210;50.058;8.688;2023-03-01T00:51:14;101411.75;;;2.06
51149;BMP280;37210;50.058;8.688;2023-03-01T00:53:44;101400.03;;;1.97
51149;BMP280;37210;50.058;8.688;2023-03-01T00:56:13;101407.16;;;2.01
51149;BMP280;37210;50.058;8.688;2023-03-01T00:58:41;101412.63;;;1.91
51149;BMP280;37210;50.058;8.688;2023-03-01T01:01:11;101392.31;;;1.81
51149;BMP280;37210;50.058;8.688;2023-03-01T01:03:45;101393.94;;;1.79
51149;BMP280;37210;50.058;8.688;2023-03-01T01:06:19;101411.66;;;1.89
51149;BMP280;37210;50.058;8.688;2023-03-01T01:08:49;101421.47;;;1.63
51149;BMP280;37210;50.058;8.688;2023-03-01T01:11:18;101406.00;;;1.80
51149;BMP280;37210;50.058;8.688;2023-03-01T01:13:47;101395.78;;;1.97
51149;BMP280;37210;50.058;8.688;2023-03-01T01:16:19;101395.72;;;1.96
51149;BMP280;37210;50.058;8.688;2023-03-01T01:18:49;101372.16;;;1.74
51149;BMP280;37210;50.058;8.688;2023-03-01T01:21:19;101343.03;;;0.97
51149;BMP280;37210;50.058;8.688;2023-03-01T01:23:49;101358.59;;;1.29
51149;BMP280;37210;50.058;8.688;2023-03-01T01:26:19;101301.16;;;0.85
51149;BMP280;37210;50.058;8.688;2023-03-01T01:28:50;101375.00;;;1.01
51149;BMP280;37210;50.058;8.688;2023-03-01T01:31:20;101361.75;;;1.09
51149;BMP280;37210;50.058;8.688;2023-03-01T01:33:49;101360.69;;;1.52
51149;BMP280;37210;50.058;8.688;2023-03-01T01:36:17;101357.06;;;1.33
51149;BMP280;37210;50.058;8.688;2023-03-01T01:38:44;101318.38;;;1.33
51149;BMP280;37210;50.058;8.688;2023-03-01T01:41:13;101311.94;;;0.94
51149;BMP280;37210;50.058;8.688;2023-03-01T01:43:44;101260.47;;;0.79
51149;BMP280;37210;50.058;8.688;2023-03-01T01:46:21;101359.03;;;1.22
51149;BMP280;37210;50.058;8.688;2023-03-01T01:48:58;101357.06;;;1.49
51149;BMP280;37210;50.058;8.688;2023-03-01T01:51:32;101357.41;;;1.71
51149;BMP280;37210;50.058;8.688;2023-03-01T01:54:08;101318.75;;;1.08
51149;BMP280;37210;50.058;8.688;2023-03-01T01:56:44;101186.78;;;0.20
51149;BMP280;37210;50.058;8.688;2023-03-01T01:59:17;101275.31;;;0.38
51149;BMP280;37210;50.058;8.688;2023-03-01T02:01:46;101112.59;;;-0.03
51149;BMP280;37210;50.058;8.688;2023-03-01T02:04:14;101363.56;;;1.26
51149;BMP280;37210;50.058;8.688;2023-03-01T02:06:47;101351.66;;;1.28
51149;BMP280;37210;50.058;8.688;2023-03-01T02:09:21;101368.47;;;1.69
51149;BMP280;37210;50.058;8.688;2023-03-01T02:11:51;101356.50;;;1.38
51149;BMP280;37210;50.058;8.688;2023-03-01T02:14:21;101280.56;;;0.85
51149;BMP280;37210;50.058;8.688;2023-03-01T02:16:50;101285.38;;;0.79
51149;BMP280;37210;50.058;8.688;2023-03-01T02:19:28;101320.91;;;0.70
51149;BMP280;37210;50.058;8.688;2023-03-01T02:22:12;101351.19;;;1.05
51149;BMP280;37210;50.058;8.688;2023-03-01T02:24:52;101308.00;;;1.01
51149;BMP280;37210;50.058;8.688;2023-03-01T02:27:38;101346.25;;;0.93
51149;BMP280;37210;50.058;8.688;2023-03-01T02:30:12;101354.56;;;1.04
51149;BMP280;37210;50.058;8.688;2023-03-01T02:32:41;101243.38;;;0.65
51149;BMP280;37210;50.058;8.688;2023-03-01T02:35:11;101350.38;;;0.75
51149;BMP280;37210;50.058;8.688;2023-03-01T02:37:42;101309.56;;;0.52
51149;BMP280;37210;50.058;8.688;2023-03-01T02:40:14;101337.44;;;1.04
51149;BMP280;37210;50.058;8.688;2023-03-01T02:42:49;101329.31;;;0.82
51149;BMP280;37210;50.058;8.688;2023-03-01T02:45:22;101280.22;;;0.79
51149;BMP280;37210;50.058;8.688;2023-03-01T02:47:53;101267.38;;;0.64
51149;BMP280;37210;50.058;8.688;2023-03-01T02:50:44;101330.63;;;0.75
51149;BMP280;37210;50.058;8.688;2023-03-01T02:53:28;101223.91;;;0.40
51149;BMP280;37210;50.058;8.688;2023-03-01T02:56:03;101285.53;;;0.98
51149;BMP280;37210;50.058;8.688;2023-03-01T02:58:32;101307.00;;;0.82
51149;BMP280;37210;50.058;8.688;2023-03-01T03:01:08;101109.03;;;-0.36
51149;BMP280;37210;50.058;8.688;2023-03-01T03:03:36;101306.50;;;0.73
51149;BMP280;37210;50.058;8.688;2023-03-01T03:06:04;101309.00;;;0.72
51149;BMP280;37210;50.058;8.688;2023-03-01T03:08:32;101306.81;;;0.79
51149;BMP280;37210;50.058;8.688;2023-03-01T03:11:00;101234.41;;;0.43
51149;BMP280;37210;50.058;8.688;2023-03-01T03:13:29;101292.03;;;1.22
51149;BMP280;37210;50.058;8.688;2023-03-01T03:15:58;101289.59;;;1.09
51149;BMP280;37210;50.058;8.688;2023-03-01T03:18:27;101283.84;;;1.29
51149;BMP280;37210;50.058;8.688;2023-03-01T03:20:55;101238.47;;;1.01
51149;BMP280;37210;50.058;8.688;2023-03-01T03:23:23;101286.00;;;0.75
51149;BMP280;37210;50.058;8.688;2023-03-01T03:25:51;101289.63;;;0.78
51149;BMP280;37210;50.058;8.688;2023-03-01T03:28:19;101142.19;;;0.05
51149;BMP280;37210;50.058;8.688;2023-03-01T03:30:47;101233.53;;;0.73
51149;BMP280;37210;50.058;8.688;2023-03-01T03:33:16;101143.28;;;0.39
51149;BMP280;37210;50.058;8.688;2023-03-01T03:35:46;101036.03;;;-0.83
51149;BMP280;37210;50.058;8.688;2023-03-01T03:38:18;101275.94;;;0.79
51149;BMP280;37210;50.058;8.688;2023-03-01T03:40:50;101278.38;;;0.93
51149;BMP280;37210;50.058;8.688;2023-03-01T03:43:21;101279.63;;;0.68
51149;BMP280;37210;50.058;8.688;2023-03-01T03:45:50;100887.84;;;-1.29
51149;BMP280;37210;50.058;8.688;2023-03-01T03:48:20;101202.94;;;0.18
51149;BMP280;37210;50.058;8.688;2023-03-01T03:50:51;101196.25;;;0.21
51149;BMP280;37210;50.058;8.688;2023-03-01T03:53:21;101254.91;;;0.72
51149;BMP280;37210;50.058;8.688;2023-03-01T03:55:51;101223.16;;;0.57
51149;BMP280;37210;50.058;8.688;2023-03-01T03:58:22;101269.69;;;0.60
51149;BMP280;37210;50.058;8.688;2023-03-01T04:00:52;101260.72;;;0.53
51149;BMP280;37210;50.058;8.688;2023-03-01T04:03:23;101164.31;;;0.02
51149;BMP280;37210;50.058;8.688;2023-03-01T04:05:53;101231.63;;;0.40
51149;BMP280;37210;50.058;8.688;2023-03-01T04:08:22;101138.09;;;0.09
51149;BMP280;37210;50.058;8.688;2023-03-01T04:10:52;101268.59;;;1.02
51149;BMP280;37210;50.058;8.688;2023-03-01T04:13:25;101261.00;;;1.05
51149;BMP280;37210;50.058;8.688;2023-03-01T04:15:56;101149.13;;;0.06
51149;BMP280;37210;50.058;8.688;2023-03-01T04:18:24;101128.94;;;-0.03
51149;BMP280;37210;50.058;8.688;2023-03-01T04:20:54;101270.53;;;1.06
51149;BMP280;37210;50.058;8.688;2023-03-01T04:23:22;101271.19;;;0.56
51149;BMP280;37210;50.058;8.688;2023-03-01T04:25:52;101266.75;;;0.68
51149;BMP280;37210;50.058;8.688;2023-03-01T04:28:25;101212.66;;;0.38
51149;BMP280;37210;50.058;8.688;2023-03-01T04:30:56;101270.06;;;0.82
51149;BMP280;37210;50.058;8.688;2023-03-01T04:33:26;101272.91;;;0.56
51149;BMP280;37210;50.058;8.688;2023-03-01T04:35:56;101259.28;;;0.73
51149;BMP280;37210;50.058;8.688;2023-03-01T04:38:24;101266.47;;;0.64
51149;BMP280;37210;50.058;8.688;2023-03-01T04:40:51;101266.69;;;0.38
51149;BMP280;37210;50.058;8.688;2023-03-01T04:43:19;101209.47;;;0.27
51149;BMP280;37210;50.058;8.688;2023-03-01T04:45:47;101228.56;;;0.31
51149;BMP280;37210;50.058;8.688;2023-03-01T04:48:15;101263.44;;;0.71
51149;BMP280;37210;50.058;8.688;2023-03-01T04:50:43;101261.78;;;0.57
51149;BMP280;37210;50.058;8.688;2023-03-01T04:53:13;101257.81;;;0.78
51149;BMP280;37210;50.058;8.688;2023-03-01T04:55:41;101262.50;;;0.54
51149;BMP280;37210;50.058;8.688;2023-03-01T04:58:09;101239.81;;;0.47
51149;BMP280;37210;50.058;8.688;2023-03-01T05:00:38;101263.50;;;1.03
51149;BMP280;37210;50.058;8.688;2023-03-01T05:03:06;101265.81;;;0.82
51149;BMP280;37210;50.058;8.688;2023-03-01T05:05:35;101262.34;;;0.51
51149;BMP280;37210;50.058;8.688;2023-03-01T05:08:06;101258.38;;;0.72
51149;BMP280;37210;50.058;8.688;2023-03-01T05:10:36;101257.16;;;0.66
51149;BMP280;37210;50.058;8.688;2023-03-01T05:13:05;101253.63;;;0.80
51149;BMP280;37210;50.058;8.688;2023-03-01T05:15:33;101198.91;;;0.68
51149;BMP280;37210;50.058;8.688;2023-03-01T05:18:02;101193.13;;;0.41
51149;BMP280;37210;50.058;8.688;2023-03-01T05:20:33;101113.50;;;-0.03
51149;BMP280;37210;50.058;8.688;2023-03-01T05:23:02;101239.66;;;0.75
51149;BMP280;37210;50.058;8.688;2023-03-01T05:25:32;101170.56;;;0.07
51149;BMP280;37210;50.058;8.688;2023-03-01T05:28:11;101202.63;;;0.42
51149;BMP280;37210;50.058;8.688;2023-03-01T05:30:39;101254.16;;;1.05
51149;BMP280;37210;50.058;8.688;2023-03-01T05:33:08;101253.97;;;0.86
51149;BMP280;37210;50.058;8.688;2023-03-01T05:35:40;101101.47;;;-0.33
51149;BMP280;37210;50.058;8.688;2023-03-01T05:38:08;101257.41;;;0.70
51149;BMP280;37210;50.058;8.688;2023-03-01T05:40:40;101234.41;;;0.43
51149;BMP280;37210;50.058;8.688;2023-03-01T05:43:12;101225.47;;;0.07
51149;BMP280;37210;50.058;8.688;2023-03-01T05:45:42;101209.69;;;0.16
51149;BMP280;37210;50.058;8.688;2023-03-01T05:48:11;101242.03;;;0.41
51149;BMP280;37210;50.058;8.688;2023-03-01T05:50:41;101239.91;;;0.34
51149;BMP280;37210;50.058;8.688;2023-03-01T05:53:12;101224.84;;;0.11
51149;BMP280;37210;50.058;8.688;2023-03-01T05:55:42;101164.13;;;-0.02
51149;BMP280;37210;50.058;8.688;2023-03-01T05:58:16;101229.91;;;0.55
51149;BMP280;37210;50.058;8.688;2023-03-01T06:00:47;101206.28;;;0.46
51149;BMP280;37210;50.058;8.688;2023-03-01T06:03:17;101233.75;;;0.77
51149;BMP280;37210;50.058;8.688;2023-03-01T06:05:45;101230.66;;;0.38
51149;BMP280;37210;50.058;8.688;2023-03-01T06:08:13;101239.66;;;0.15
51149;BMP280;37210;50.058;8.688;2023-03-01T06:10:41;101153.47;;;-0.08
51149;BMP280;37210;50.058;8.688;2023-03-01T06:13:09;101109.09;;;0.11
51149;BMP280;37210;50.058;8.688;2023-03-01T06:15:38;101109.25;;;-0.31
51149;BMP280;37210;50.058;8.688;2023-03-01T06:18:06;101116.50;;;-0.10
51149;BMP280;37210;50.058;8.688;2023-03-01T06:20:34;101240.81;;;0.20
51149;BMP280;37210;50.058;8.688;2023-03-01T06:23:02;101150.22;;;-0.20
51149;BMP280;37210;50.058;8.688;2023-03-01T06:25:31;101243.13;;;0.61
51149;BMP280;37210;50.058;8.688;2023-03-01T06:27:59;101180.84;;;0.21
51149;BMP280;37210;50.058;8.688;2023-03-01T06:30:27;101241.91;;;0.54
51149;BMP280;37210;50.058;8.688;2023-03-01T06:32:57;101015.44;;;-0.54
51149;BMP280;37210;50.058;8.688;2023-03-01T06:35:27;101242.94;;;0.72
51149;BMP280;37210;50.058;8.688;2023-03-01T06:37:57;101132.78;;;0.20
51149;BMP280;37210;50.058;8.688;2023-03-01T06:40:29;101182.31;;;0.63
51149;BMP280;37210;50.058;8.688;2023-03-01T06:43:02;101223.56;;;0.95
51149;BMP280;37210;50.058;8.688;2023-03-01T06:45:30;101150.53;;;0.01
51149;BMP280;37210;50.058;8.688;2023-03-01T06:48:03;101232.66;;;0.89
51149;BMP280;37210;50.058;8.688;2023-03-01T06:50:32;101230.22;;;0.75
51149;BMP280;37210;50.058;8.688;2023-03-01T06:53:01;101023.56;;;-0.32
51149;BMP280;37210;50.058;8.688;2023-03-01T06:55:30;100864.34;;;-1.37
51149;BMP280;37210;50.058;8.688;2023-03-01T06:57:59;101231.56;;;0.69
51149;BMP280;37210;50.058;8.688;2023-03-01T07:00:29;101221.63;;;0.91
51149;BMP280;37210;50.058;8.688;2023-03-01T07:03:03;101231.75;;;0.88
51149;BMP280;37210;50.058;8.688;2023-03-01T07:05:41;101124.94;;;0.49
51149;BMP280;37210;50.058;8.688;2023-03-01T07:08:09;101224.16;;;1.06
51149;BMP280;37210;50.058;8.688;2023-03-01T07:10:37;101228.34;;;1.20
51149;BMP280;37210;50.058;8.688;2023-03-01T07:13:08;101176.16;;;0.92
51149;BMP280;37210;50.058;8.688;2023-03-01T07:15:36;101226.31;;;1.14
51149;BMP280;37210;50.058;8.688;2023-03-01T07:18:05;101229.22;;;1.04
51149;BMP280;37210;50.058;8.688;2023-03-01T07:20:34;101168.25;;;0.72
51149;BMP280;37210;50.058;8.688;2023-03-01T07:23:02;101212.78;;;1.34
51149;BMP280;37210;50.058;8.688;2023-03-01T07:25:33;101165.22;;;0.96
51149;BMP280;37210;50.058;8.688;2023-03-01T07:28:01;101218.31;;;1.42
51149;BMP280;37210;50.058;8.688;2023-03-01T07:30:30;101214.06;;;1.58
51149;BMP280;37210;50.058;8.688;2023-03-01T07:32:59;101215.13;;;1.30
51149;BMP280;37210;50.058;8.688;2023-03-01T07:35:28;101215.84;;;1.11
51149;BMP280;37210;50.058;8.688;2023-03-01T07:37:56;101218.09;;;1.53
51149;BMP280;37210;50.058;8.688;2023-03-01T07:40:24;101208.88;;;1.92
51149;BMP280;37210;50.058;8.688;2023-03-01T07:42:55;101034.56;;;0.93
51149;BMP280;37210;50.058;8.688;2023-03-01T07:45:24;101195.19;;;2.11
51149;BMP280;37210;50.058;8.688;2023-03-01T07:47:52;101177.88;;;2.08
51149;BMP280;37210;50.058;8.688;2023-03-01T07:50:21;101197.47;;;2.05
51149;BMP280;37210;50.058;8.688;2023-03-01T07:52:50;101194.47;;;2.31
51149;BMP280;37210;50.058;8.688;2023-03-01T07:55:18;101193.81;;;2.72
51149;BMP280;37210;50.058;8.688;2023-03-01T07:57:46;101184.47;;;3.12
51149;BMP280;37210;50.058;8.688;2023-03-01T08:00:14;101194.50;;;3.04
51149;BMP280;37210;50.058;8.688;2023-03-01T08:02:42;101191.06;;;3.63
51149;BMP280;37210;50.058;8.688;2023-03-01T08:05:10;101186.00;;;4.07
51149;BMP280;37210;50.058;8.688;2023-03-01T08:07:37;101184.94;;;3.03
51149;BMP280;37210;50.058;8.688;2023-03-01T08:10:07;101199.41;;;3.57
51149;BMP280;37210;50.058;8.688;2023-03-01T08:12:37;101198.16;;;3.09
51149;BMP280;37210;50.058;8.688;2023-03-01T08:15:05;101134.63;;;3.75
51149;BMP280;37210;50.058;8.688;2023-03-01T08:17:33;101193.41;;;4.19
51149;BMP280;37210;50.058;8.688;2023-03-01T08:20:01;101180.44;;;4.19
51149;BMP280;37210;50.058;8.688;2023-03-01T08:22:32;101189.72;;;4.78
51149;BMP280;37210;50.058;8.688;2023-03-01T08:24:59;101186.41;;;3.95
51149;BMP280;37210;50.058;8.688;2023-03-01T08:27:28;101092.22;;;5.06
51149;BMP280;37210;50.058;8.688;2023-03-01T08:29:56;101164.72;;;5.75
51149;BMP280;37210;50.058;8.688;2023-03-01T08:32:23;101171.50;;;4.75
51149;BMP280;37210;50.058;8.688;2023-03-01T08:34:51;101160.63;;;5.56
51149;BMP280;37210;50.058;8.688;2023-03-01T08:37:18;101161.13;;;6.49
51149;BMP280;37210;50.058;8.688;2023-03-01T08:39:46;101170.41;;;5.16
51149;BMP280;37210;50.058;8.688;2023-03-01T08:42:13;101161.78;;;4.94
51149;BMP280;37210;50.058;8.688;2023-03-01T08:44:42;101143.16;;;4.36
51149;BMP280;37210;50.058;8.688;2023-03-01T08:47:10;101162.50;;;3.82
51149;BMP280;37210;50.058;8.688;2023-03-01T08:49:37;101148.38;;;5.29
51149;BMP280;37210;50.058;8.688;2023-03-01T08:52:05;101157.91;;;4.82
51149;BMP280;37210;50.058;8.688;2023-03-01T08:54:32;101136.78;;;5.68
51149;BMP280;37210;50.058;8.688;2023-03-01T08:57:01;101135.38;;;4.36
51149;BMP280;37210;50.058;8.688;2023-03-01T08:59:29;101099.56;;;4.03
51149;BMP280;37210;50.058;8.688;2023-03-01T09:02:02;101149.22;;;4.58
51149;BMP280;37210;50.058;8.688;2023-03-01T09:04:30;101155.94;;;4.99
51149;BMP280;37210;50.058;8.688;2023-03-01T09:06:59;101158.03;;;4.19
51149;BMP280;37210;50.058;8.688;2023-03-01T09:09:26;101144.69;;;5.22
51149;BMP280;37210;50.058;8.688;2023-03-01T09:11:54;101136.22;;;5.03
51149;BMP280;37210;50.058;8.688;2023-03-01T09:14:21;101119.59;;;5.97
51149;BMP280;37210;50.058;8.688;2023-03-01T09:16:48;101124.34;;;6.36
51149;BMP280;37210;50.058;8.688;2023-03-01T09:19:17;101113.84;;;4.82
51149;BMP280;37210;50.058;8.688;2023-03-01T09:21:45;101130.91;;;5.00
51149;BMP280;37210;50.058;8.688;2023-03-01T09:24:20;101059.06;;;5.21
51149;BMP280;37210;50.058;8.688;2023-03-01T09:26:48;101111.91;;;5.24
51149;BMP280;37210;50.058;8.688;2023-03-01T09:29:16;101089.06;;;5.38
51149;BMP280;37210;50.058;8.688;2023-03-01T09:31:44;101114.50;;;5.01
51149;BMP280;37210;50.058;8.688;2023-03-01T09:34:12;101105.22;;;5.31
51149;BMP280;37210;50.058;8.688;2023-03-01T09:36:43;101103.44;;;4.81
51149;BMP280;37210;50.058;8.688;2023-03-01T09:39:10;101117.53;;;5.61
51149;BMP280;37210;50.058;8.688;2023-03-01T09:41:45;101097.19;;;5.00
51149;BMP280;37210;50.058;8.688;2023-03-01T09:44:23;101106.03;;;5.05
51149;BMP280;37210;50.058;8.688;2023-03-01T09:46:57;101111.69;;;4.95
51149;BMP280;37210;50.058;8.688;2023-03-01T09:49:28;101062.22;;;5.37
51149;BMP280;37210;50.058;8.688;2023-03-01T09:52:03;101098.41;;;6.11
51149;BMP280;37210;50.058;8.688;2023-03-01T09:54:40;101086.47;;;6.16
51149;BMP280;37210;50.058;8.688;2023-03-01T09:57:17;101091.00;;;5.45
51149;BMP280;37210;50.058;8.688;2023-03-01T10:00:00;100961.59;;;4.77
51149;BMP280;37210;50.058;8.688;2023-03-01T10:02:39;101084.28;;;5.50
51149;BMP280;37210;50.058;8.688;2023-03-01T10:05:26;101049.72;;;5.78
51149;BMP280;37210;50.058;8.688;2023-03-01T10:08:18;101067.91;;;6.04
51149;BMP280;37210;50.058;8.688;2023-03-01T10:10:55;101078.78;;;5.67
51149;BMP280;37210;50.058;8.688;2023-03-01T10:13:25;101067.00;;;6.30
51149;BMP280;37210;50.058;8.688;2023-03-01T10:16:00;101094.38;;;5.67
51149;BMP280;37210;50.058;8.688;2023-03-01T10:18:33;101092.66;;;5.68
51149;BMP280;37210;50.058;8.688;2023-03-01T10:21:13;101055.50;;;5.94
51149;BMP280;37210;50.058;8.688;2023-03-01T10:23:44;101074.28;;;6.14
51149;BMP280;37210;50.058;8.688;2023-03-01T10:26:24;101077.56;;;6.36
51149;BMP280;37210;50.058;8.688;2023-03-01T10:29:03;101075.53;;;5.46
51149;BMP280;37210;50.058;8.688;2023-03-01T10:31:39;101039.97;;;5.71
51149;BMP280;37210;50.058;8.688;2023-03-01T10:34:12;101060.69;;;6.22
51149;BMP280;37210;50.058;8.688;2023-03-01T10:36:43;101072.41;;;5.83
51149;BMP280;37210;50.058;8.688;2023-03-01T10:39:18;101040.78;;;6.23
51149;BMP280;37210;50.058;8.688;2023-03-01T10:41:58;101042.38;;;6.77
51149;BMP280;37210;50.058;8.688;2023-03-01T10:44:45;101059.19;;;6.59
51149;BMP280;37210;50.058;8.688;2023-03-01T10:47:19;101055.94;;;5.83
51149;BMP280;37210;50.058;8.688;2023-03-01T10:49:54;101036.13;;;6.41
51149;BMP280;37210;50.058;8.688;2023-03-01T10:52:25;101059.75;;;6.20
51149;BMP280;37210;50.058;8.688;2023-03-01T10:55:02;101031.13;;;6.78
51149;BMP280;37210;50.058;8.688;2023-03-01T10:57:46;100978.00;;;6.37
51149;BMP280;37210;50.058;8.688;2023-03-01T11:00:21;101021.09;;;6.31
51149;BMP280;37210;50.058;8.688;2023-03-01T11:03:02;100956.88;;;6.57
51149;BMP280;37210;50.058;8.688;2023-03-01T11:05:37;100984.28;;;6.77
51149;BMP280;37210;50.058;8.688;2023-03-01T11:08:33;100993.56;;;6.67
51149;BMP280;37210;50.058;8.688;2023-03-01T11:11:19;100937.84;;;6.58
51149;BMP280;37210;50.058;8.688;2023-03-01T11:13:53;100996.38;;;7.07
51149;BMP280;37210;50.058;8.688;2023-03-01T11:16:29;100983.91;;;7.28
51149;BMP280;37210;50.058;8.688;2023-03-01T11:19:04;100991.41;;;7.15
51149;BMP280;37210;50.058;8.688;2023-03-01T11:21:47;100976.09;;;7.28
51149;BMP280;37210;50.058;8.688;2023-03-01T11:24:26;100974.50;;;7.69
51149;BMP280;37210;50.058;8.688;2023-03-01T11:27:03;100963.44;;;7.42
51149;BMP280;37210;50.058;8.688;2023-03-01T11:29:37;100977.28;;;7.41
51149;BMP280;37210;50.058;8.688;2023-03-01T11:32:11;100977.75;;;7.25
51149;BMP280;37210;50.058;8.688;2023-03-01T11:34:43;100970.19;;;7.34
51149;BMP280;37210;50.058;8.688;2023-03-01T11:37:21;100916.59;;;7.06
51149;BMP280;37210;50.058;8.688;2023-03-01T11:40:05;100954.00;;;7.11
51149;BMP280;37210;50.058;8.688;2023-03-01T11:42:56;100953.19;;;7.50
51149;BMP280;37210;50.058;8.688;2023-03-01T11:45:40;100928.66;;;7.03
51149;BMP280;37210;50.058;8.688;2023-03-01T11:51:24;100936.78;;;7.52
51149;BMP280;37210;50.058;8.688;2023-03-01T11:54:26;100936.50;;;7.77
51149;BMP280;37210;50.058;8.688;2023-03-01T11:57:04;100915.59;;;7.74
51149;BMP280;37210;50.058;8.688;2023-03-01T12:00:05;100910.63;;;7.86
51149;BMP280;37210;50.058;8.688;2023-03-01T12:03:08;100929.34;;;7.69
51149;BMP280;37210;50.058;8.688;2023-03-01T12:06:08;100919.41;;;7.90
51149;BMP280;37210;50.058;8.688;2023-03-01T12:08:59;100912.16;;;7.38
51149;BMP280;37210;50.058;8.688;2023-03-01T12:11:41;100892.13;;;7.73
51149;BMP280;37210;50.058;8.688;2023-03-01T12:14:41;100883.66;;;7.83
51149;BMP280;37210;50.058;8.688;2023-03-01T12:17:36;100865.94;;;7.67
51149;BMP280;37210;50.058;8.688;2023-03-01T12:20:28;100909.41;;;7.69
51149;BMP280;37210;50.058;8.688;2023-03-01T12:23:19;100875.19;;;7.93
51149;BMP280;37210;50.058;8.688;2023-03-01T12:25:59;100883.78;;;7.89
51149;BMP280;37210;50.058;8.688;2023-03-01T12:28:57;100900.81;;;7.73
51149;BMP280;37210;50.058;8.688;2023-03-01T12:31:53;100870.47;;;7.74
51149;BMP280;37210;50.058;8.688;2023-03-01T12:38:13;100884.53;;;7.82
51149;BMP280;37210;50.058;8.688;2023-03-01T12:44:12;100812.59;;;7.47
51149;BMP280;37210;50.058;8.688;2023-03-01T12:47:05;100848.97;;;8.26
51149;BMP280;37210;50.058;8.688;2023-03-01T12:49:44;100800.31;;;7.83
51149;BMP280;37210;50.058;8.688;2023-03-01T12:52:19;100836.19;;;7.96
51149;BMP280;37210;50.058;8.688;2023-03-01T12:54:53;100827.44;;;8.36
51149;BMP280;37210;50.058;8.688;2023-03-01T12:57:28;100784.13;;;7.99
51149;BMP280;37210;50.058;8.688;2023-03-01T13:00:15;100781.78;;;7.68
51149;BMP280;37210;50.058;8.688;2023-03-01T13:02:59;100806.50;;;7.88
51149;BMP280;37210;50.058;8.688;2023-03-01T13:05:41;100810.00;;;7.90
51149;BMP280;37210;50.058;8.688;2023-03-01T13:08:27;100820.09;;;8.17
51149;BMP280;37210;50.058;8.688;2023-03-01T13:11:02;100803.91;;;7.89
51149;BMP280;37210;50.058;8.688;2023-03-01T13:13:31;100803.13;;;7.93
51149;BMP280;37210;50.058;8.688;2023-03-01T13:16:21;100810.06;;;8.36
51149;BMP280;37210;50.058;8.688;2023-03-01T13:19:06;100807.88;;;8.62
51149;BMP280;37210;50.058;8.688;2023-03-01T13:21:39;100809.75;;;8.69
51149;BMP280;37210;50.058;8.688;2023-03-01T13:24:26;100784.38;;;8.59
51149;BMP280;37210;50.058;8.688;2023-03-01T13:27:26;100804.69;;;8.78
51149;BMP280;37210;50.058;8.688;2023-03-01T13:29:57;100785.13;;;8.52
51149;BMP280;37210;50.058;8.688;2023-03-01T13:32:32;100769.84;;;8.24
51149;BMP280;37210;50.058;8.688;2023-03-01T13:38:37;100787.81;;;8.58
51149;BMP280;37210;50.058;8.688;2023-03-01T13:41:08;100769.66;;;8.61
51149;BMP280;37210;50.058;8.688;2023-03-01T13:43:38;100774.13;;;8.69
51149;BMP280;37210;50.058;8.688;2023-03-01T13:46:10;100779.38;;;8.71
51149;BMP280;37210;50.058;8.688;2023-03-01T13:48:45;100761.66;;;8.52
51149;BMP280;37210;50.058;8.688;2023-03-01T13:51:23;100765.44;;;8.70
51149;BMP280;37210;50.058;8.688;2023-03-01T13:53:54;100771.63;;;8.75
51149;BMP280;37210;50.058;8.688;2023-03-01T13:56:28;100763.59;;;8.63
51149;BMP280;37210;50.058;8.688;2023-03-01T13:59:05;100739.97;;;8.53
51149;BMP280;37210;50.058;8.688;2023-03-01T14:01:40;100679.47;;;8.23
51149;BMP280;37210;50.058;8.688;2023-03-01T14:04:19;100760.91;;;8.59
51149;BMP280;37210;50.058;8.688;2023-03-01T14:06:49;100670.38;;;7.99
51149;BMP280;37210;50.058;8.688;2023-03-01T14:09:20;100588.44;;;7.78
51149;BMP280;37210;50.058;8.688;2023-03-01T14:12:09;100746.28;;;8.68
51149;BMP280;37210;50.058;8.688;2023-03-01T14:14:52;100734.03;;;8.61
51149;BMP280;37210;50.058;8.688;2023-03-01T14:17:41;100752.66;;;8.87
51149;BMP280;37210;50.058;8.688;2023-03-01T14:20:18;100650.91;;;8.26
51149;BMP280;37210;50.058;8.688;2023-03-01T14:22:49;100748.25;;;8.84
51149;BMP280;37210;50.058;8.688;2023-03-01T14:25:25;100740.63;;;8.97
51149;BMP280;37210;50.058;8.688;2023-03-01T14:28:00;100762.03;;;8.74
51149;BMP280;37210;50.058;8.688;2023-03-01T14:30:34;100707.72;;;8.48
51149;BMP280;37210;50.058;8.688;2023-03-01T14:33:06;100739.31;;;8.67
51149;BMP280;37210;50.058;8.688;2023-03-01T14:35:54;100746.34;;;8.71
51149;BMP280;37210;50.058;8.688;2023-03-01T14:38:29;100734.28;;;8.78
51149;BMP280;37210;50.058;8.688;2023-03-01T14:41:05;100735.47;;;9.01
51149;BMP280;37210;50.058;8.688;2023-03-01T14:43:37;100727.44;;;8.88
51149;BMP280;37210;50.058;8.688;2023-03-01T14:46:20;100685.00;;;8.41
51149;BMP280;37210;50.058;8.688;2023-03-01T14:48:53;100673.91;;;8.52
51149;BMP280;37210;50.058;8.688;2023-03-01T14:51:37;100734.19;;;8.73
51149;BMP280;37210;50.058;8.688;2023-03-01T14:54:20;100727.19;;;8.71
51149;BMP280;37210;50.058;8.688;2023-03-01T14:56:52;100732.25;;;8.62